createdAt,value
2022-08-22T00:02:23.637Z,1.53
2022-08-22T00:03:01.449Z,1.30
2022-08-22T00:03:04.654Z,1.57
2022-08-22T00:04:58.362Z,1.70
2022-08-22T00:07:40.933Z,1.47
2022-08-22T00:10:25.108Z,1.67
2022-08-22T00:13:00.278Z,1.63
2022-08-22T00:15:43.444Z,1.80
2022-08-22T00:18:18.192Z,1.90
2022-08-22T00:20:50.407Z,1.77
2022-08-22T00:23:24.254Z,1.40
2022-08-22T00:25:59.303Z,1.83
2022-08-22T00:28:32.438Z,1.70
2022-08-22T00:31:09.265Z,1.70
2022-08-22T00:33:46.378Z,1.50
2022-08-22T00:36:23.295Z,1.63
2022-08-22T00:38:55.903Z,1.57
2022-08-22T00:41:37.854Z,1.70
2022-08-22T00:44:24.194Z,1.40
2022-08-22T00:47:14.469Z,2.20
2022-08-22T00:50:01.065Z,1.90
2022-08-22T00:52:47.017Z,1.50
2022-08-22T00:55:35.007Z,1.90
2022-08-22T00:58:35.333Z,1.30
2022-08-22T01:01:07.964Z,1.80
2022-08-22T01:03:52.422Z,1.80
2022-08-22T01:06:27.403Z,1.77
2022-08-22T01:09:04.627Z,1.50
2022-08-22T01:11:50.986Z,1.50
2022-08-22T01:14:35.386Z,1.63
2022-08-22T01:17:37.541Z,1.60
2022-08-22T01:20:34.206Z,1.77
2022-08-22T01:23:40.682Z,1.60
2022-08-22T01:26:53.706Z,1.73
2022-08-22T01:29:42.653Z,1.80
2022-08-22T01:32:41.042Z,1.90
2022-08-22T01:35:38.081Z,1.67
2022-08-22T01:38:44.681Z,2.10
2022-08-22T01:41:40.008Z,1.90
2022-08-22T01:44:30.610Z,1.67
2022-08-22T01:47:02.610Z,2.17
2022-08-22T01:49:39.261Z,1.73
2022-08-22T01:52:13.787Z,1.80
2022-08-22T01:54:52.339Z,1.73
2022-08-22T01:57:21.013Z,2.43
2022-08-22T01:59:51.209Z,1.80
2022-08-22T02:02:40.088Z,1.67
2022-08-22T02:05:19.116Z,2.00
2022-08-22T02:07:51.056Z,2.40
2022-08-22T02:10:24.265Z,2.23
2022-08-22T02:13:01.493Z,2.00
2022-08-22T02:15:49.835Z,2.20
2022-08-22T02:18:24.318Z,2.13
2022-08-22T02:21:03.812Z,1.67
2022-08-22T02:23:45.655Z,2.00
2022-08-22T02:26:18.514Z,2.17
2022-08-22T02:28:57.153Z,1.83
2022-08-22T02:31:38.162Z,2.00
2022-08-22T02:34:22.083Z,1.90
2022-08-22T02:36:58.135Z,2.40
2022-08-22T02:39:37.378Z,1.83
2022-08-22T02:42:19.013Z,1.60
2022-08-22T02:44:57.269Z,1.90
2022-08-22T02:47:32.455Z,1.93
2022-08-22T02:50:12.627Z,1.70
2022-08-22T02:52:52.330Z,2.00
2022-08-22T02:55:34.699Z,1.83
2022-08-22T02:58:08.831Z,1.77
2022-08-22T03:00:46.428Z,2.00
2022-08-22T03:03:22.346Z,1.90
2022-08-22T03:06:02.816Z,1.70
2022-08-22T03:08:33.832Z,1.70
2022-08-22T03:11:16.155Z,1.70
2022-08-22T03:13:57.171Z,1.80
2022-08-22T03:16:36.422Z,1.93
2022-08-22T03:19:14.850Z,1.70
2022-08-22T03:21:53.601Z,1.97
2022-08-22T03:24:25.970Z,1.80
2022-08-22T03:27:02.922Z,2.10
2022-08-22T03:29:35.700Z,1.80
2022-08-22T03:32:11.274Z,1.80
2022-08-22T03:34:54.361Z,2.10
2022-08-22T03:37:28.447Z,1.80
2022-08-22T03:40:02.340Z,1.70
2022-08-22T03:43:14.521Z,1.90
2022-08-22T03:46:18.483Z,1.90
2022-08-22T03:49:19.974Z,2.10
2022-08-22T03:52:10.573Z,2.00
2022-08-22T03:55:11.915Z,1.80
2022-08-22T03:58:27.672Z,1.80
2022-08-22T04:01:29.576Z,2.00
2022-08-22T04:04:24.265Z,1.90
2022-08-22T04:07:09.344Z,1.93
2022-08-22T04:10:20.910Z,1.83
2022-08-22T04:13:24.924Z,2.00
2022-08-22T04:16:12.595Z,2.17
2022-08-22T04:19:28.183Z,2.10
2022-08-22T04:22:15.875Z,1.87
2022-08-22T04:25:07.834Z,1.80
2022-08-22T04:27:41.146Z,2.10
2022-08-22T04:30:18.926Z,2.27
2022-08-22T04:33:16.737Z,2.10
2022-08-22T04:36:03.672Z,2.07
2022-08-22T04:38:38.089Z,2.00
2022-08-22T04:41:10.267Z,1.90
2022-08-22T04:43:42.189Z,2.60
2022-08-22T04:46:16.981Z,2.10
2022-08-22T04:48:51.305Z,2.33
2022-08-22T04:51:39.355Z,2.10
2022-08-22T04:54:32.264Z,2.33
2022-08-22T04:57:19.574Z,2.10
2022-08-22T04:59:47.714Z,2.30
2022-08-22T05:02:25.134Z,2.50
2022-08-22T05:05:01.987Z,2.30
2022-08-22T05:07:36.382Z,2.60
2022-08-22T05:10:10.532Z,2.27
2022-08-22T05:12:44.588Z,2.40
2022-08-22T05:15:23.157Z,2.20
2022-08-22T05:17:54.202Z,2.17
2022-08-22T05:20:24.985Z,2.20
2022-08-22T05:23:06.547Z,2.40
2022-08-22T05:25:47.996Z,2.07
2022-08-22T05:28:19.658Z,2.43
2022-08-22T05:30:49.400Z,2.30
2022-08-22T05:33:34.101Z,2.60
2022-08-22T05:36:07.422Z,2.60
2022-08-22T05:38:41.405Z,3.00
2022-08-22T05:41:11.632Z,2.50
2022-08-22T05:43:41.817Z,2.20
2022-08-22T05:46:17.971Z,2.13
2022-08-22T05:48:56.630Z,2.17
2022-08-22T05:51:31.316Z,2.33
2022-08-22T05:54:10.737Z,2.33
2022-08-22T05:56:42.580Z,2.30
2022-08-22T05:59:23.571Z,2.47
2022-08-22T06:02:01.566Z,2.80
2022-08-22T06:04:37.121Z,2.40
2022-08-22T06:07:09.354Z,2.33
2022-08-22T06:10:02.121Z,2.73
2022-08-22T06:12:34.368Z,2.50
2022-08-22T06:15:15.342Z,2.53
2022-08-22T06:17:49.458Z,2.30
2022-08-22T06:20:21.160Z,2.60
2022-08-22T06:22:53.841Z,2.70
2022-08-22T06:25:27.599Z,2.47
2022-08-22T06:27:56.775Z,2.20
2022-08-22T06:30:27.586Z,2.70
2022-08-22T06:33:01.105Z,2.50
2022-08-22T06:35:53.831Z,2.40
2022-08-22T06:38:24.418Z,2.60
2022-08-22T06:40:55.546Z,2.77
2022-08-22T06:43:24.822Z,2.60
2022-08-22T06:45:54.172Z,2.80
2022-08-22T06:48:24.973Z,2.57
2022-08-22T06:50:58.650Z,2.60
2022-08-22T06:53:33.190Z,2.17
2022-08-22T06:56:06.075Z,2.17
2022-08-22T06:58:38.351Z,2.87
2022-08-22T07:01:11.655Z,2.40
2022-08-22T07:03:45.015Z,2.73
2022-08-22T07:06:21.041Z,2.63
2022-08-22T07:08:55.892Z,2.63
2022-08-22T07:11:28.412Z,2.20
2022-08-22T07:14:00.266Z,2.40
2022-08-22T07:16:31.927Z,2.23
2022-08-22T07:19:00.362Z,2.50
2022-08-22T07:21:30.762Z,2.33
2022-08-22T07:24:02.513Z,2.27
2022-08-22T07:26:40.333Z,2.17
2022-08-22T07:29:17.457Z,1.97
2022-08-22T07:31:52.495Z,2.17
2022-08-22T07:34:41.734Z,2.03
2022-08-22T07:37:16.359Z,1.90
2022-08-22T07:39:51.356Z,2.20
2022-08-22T07:42:30.372Z,2.50
2022-08-22T07:45:08.451Z,2.30
2022-08-22T07:47:53.859Z,2.37
2022-08-22T07:50:24.591Z,2.60
2022-08-22T07:52:54.512Z,2.00
2022-08-22T07:55:26.162Z,2.20
2022-08-22T07:57:59.343Z,2.30
2022-08-22T08:00:29.010Z,2.60
2022-08-22T08:02:59.745Z,2.30
2022-08-22T08:05:32.314Z,2.37
2022-08-22T08:08:03.850Z,2.20
2022-08-22T08:10:34.823Z,3.30
2022-08-22T08:13:07.677Z,2.37
2022-08-22T08:15:42.805Z,2.10
2022-08-22T08:18:19.195Z,2.30
2022-08-22T08:20:51.677Z,2.30
2022-08-22T08:23:23.377Z,2.20
2022-08-22T08:25:58.988Z,1.80
2022-08-22T08:28:37.731Z,1.90
2022-08-22T08:31:14.861Z,1.80
2022-08-22T08:33:49.073Z,2.50
2022-08-22T08:36:34.344Z,2.13
2022-08-22T08:39:12.573Z,2.20
2022-08-22T08:41:58.216Z,2.13
2022-08-22T08:44:49.445Z,1.80
2022-08-22T08:47:32.708Z,1.80
2022-08-22T08:50:26.308Z,2.20
2022-08-22T08:53:08.447Z,1.90
2022-08-22T08:55:48.498Z,1.43
2022-08-22T08:58:33.900Z,1.83
2022-08-22T09:01:16.568Z,2.10
2022-08-22T09:04:06.928Z,2.23
2022-08-22T09:07:01.325Z,1.67
2022-08-22T09:10:01.104Z,1.60
2022-08-22T09:13:00.350Z,1.90
2022-08-22T09:15:58.736Z,1.63
2022-08-22T09:18:59.416Z,1.60
2022-08-22T09:21:53.710Z,1.57
2022-08-22T09:24:52.578Z,1.80
2022-08-22T09:27:33.875Z,1.60
2022-08-22T09:30:11.788Z,1.40
2022-08-22T09:32:56.890Z,1.50
2022-08-22T09:35:33.736Z,1.40
2022-08-22T09:38:39.442Z,1.60
2022-08-22T09:41:27.748Z,1.63
2022-08-22T09:44:05.379Z,1.50
2022-08-22T09:46:39.939Z,1.53
2022-08-22T09:49:16.474Z,1.57
2022-08-22T09:51:58.243Z,1.50
2022-08-22T09:54:32.845Z,1.40
2022-08-22T09:57:27.713Z,1.23
2022-08-22T10:00:14.547Z,1.88
2022-08-22T10:02:51.890Z,1.60
2022-08-22T10:05:40.310Z,1.50
2022-08-22T10:08:20.924Z,1.50
2022-08-22T10:11:03.983Z,1.20
2022-08-22T10:13:57.519Z,1.58
2022-08-22T10:16:44.427Z,1.60
2022-08-22T10:19:19.445Z,1.42
2022-08-22T10:22:29.815Z,1.52
2022-08-22T10:25:32.387Z,1.38
2022-08-22T10:28:19.224Z,1.50
2022-08-22T10:30:56.090Z,1.50
2022-08-22T10:33:29.844Z,1.58
2022-08-22T10:36:11.710Z,1.40
2022-08-22T10:38:46.880Z,1.60
2022-08-22T10:41:28.679Z,1.48
2022-08-22T10:44:03.960Z,1.63
2022-08-22T10:46:37.662Z,1.50
2022-08-22T10:49:10.432Z,1.30
2022-08-22T10:51:45.693Z,1.08
2022-08-22T10:54:30.029Z,1.40
2022-08-22T10:57:09.561Z,1.40
2022-08-22T10:59:44.779Z,1.55
2022-08-22T11:02:31.578Z,1.42
2022-08-22T11:05:22.661Z,1.45
2022-08-22T11:08:06.733Z,1.50
2022-08-22T11:10:49.131Z,1.52
2022-08-22T11:13:29.094Z,1.63
2022-08-22T11:16:04.397Z,1.35
2022-08-22T11:18:58.026Z,1.40
2022-08-22T11:21:46.008Z,1.48
2022-08-22T11:24:36.231Z,1.58
2022-08-22T11:27:20.952Z,1.30
2022-08-22T11:29:59.945Z,1.60
2022-08-22T11:32:39.302Z,1.55
2022-08-22T11:35:17.202Z,1.25
2022-08-22T11:37:54.835Z,1.52
2022-08-22T11:40:33.683Z,1.30
2022-08-22T11:43:18.037Z,1.40
2022-08-22T11:45:50.132Z,1.48
2022-08-22T11:48:24.653Z,1.63
2022-08-22T11:50:59.212Z,1.40
2022-08-22T11:53:36.307Z,1.40
2022-08-22T11:56:21.742Z,1.80
2022-08-22T11:58:57.214Z,1.45
2022-08-22T12:01:37.129Z,1.55
2022-08-22T12:04:12.739Z,1.40
2022-08-22T12:06:51.883Z,1.40
2022-08-22T12:09:31.910Z,1.20
2022-08-22T12:12:26.281Z,1.50
2022-08-22T12:15:00.187Z,1.50
2022-08-22T12:18:10.424Z,1.20
2022-08-22T12:21:01.102Z,1.40
2022-08-22T12:23:53.395Z,1.40
2022-08-22T12:26:31.950Z,1.80
2022-08-22T12:29:19.101Z,1.50
2022-08-22T12:32:38.778Z,1.33
2022-08-22T12:35:31.539Z,1.70
2022-08-22T12:38:26.430Z,1.40
2022-08-22T12:41:40.231Z,1.92
2022-08-22T12:44:29.231Z,1.50
2022-08-22T12:47:18.345Z,1.40
2022-08-22T12:50:13.884Z,1.90
2022-08-22T12:53:01.381Z,1.60
2022-08-22T12:55:55.623Z,1.58
2022-08-22T12:58:36.996Z,1.55
2022-08-22T13:01:08.446Z,1.98
2022-08-22T13:03:38.467Z,1.48
2022-08-22T13:06:22.547Z,1.50
2022-08-22T13:08:54.417Z,1.63
2022-08-22T13:11:24.041Z,1.58
2022-08-22T13:13:57.253Z,1.65
2022-08-22T13:16:27.644Z,1.55
2022-08-22T13:18:59.644Z,1.60
2022-08-22T13:21:39.852Z,1.52
2022-08-22T13:24:16.654Z,1.33
2022-08-22T13:26:49.563Z,1.50
2022-08-22T13:29:26.095Z,1.55
2022-08-22T13:32:00.454Z,1.60
2022-08-22T13:34:40.067Z,1.45
2022-08-22T13:37:15.266Z,1.55
2022-08-22T13:39:49.145Z,1.40
2022-08-22T13:42:27.795Z,1.90
2022-08-22T13:45:04.389Z,1.35
2022-08-22T13:47:39.535Z,1.38
2022-08-22T13:50:12.646Z,1.45
2022-08-22T13:52:52.168Z,1.52
2022-08-22T13:55:31.148Z,1.33
2022-08-22T13:58:04.697Z,1.40
2022-08-22T14:01:25.598Z,1.30
2022-08-22T14:04:01.272Z,1.63
2022-08-22T14:06:43.916Z,1.38
2022-08-22T14:09:29.530Z,1.38
2022-08-22T14:12:12.682Z,1.48
2022-08-22T14:14:45.902Z,1.70
2022-08-22T14:17:17.953Z,1.40
2022-08-22T14:19:58.782Z,1.52
2022-08-22T14:22:31.835Z,1.55
2022-08-22T14:25:03.583Z,1.70
2022-08-22T14:27:37.209Z,1.38
2022-08-22T14:30:14.011Z,1.52
2022-08-22T14:32:48.359Z,1.20
2022-08-22T14:35:23.536Z,1.63
2022-08-22T14:38:17.910Z,1.30
2022-08-22T14:40:48.570Z,1.50
2022-08-22T14:43:24.892Z,1.48
2022-08-22T14:46:02.043Z,1.50
2022-08-22T14:48:40.654Z,1.38
2022-08-22T14:51:18.366Z,1.38
2022-08-22T14:53:50.111Z,1.58
2022-08-22T14:56:23.195Z,1.40
2022-08-22T14:58:58.195Z,1.27
2022-08-22T15:01:29.939Z,1.70
2022-08-22T15:04:05.205Z,1.60
2022-08-22T15:06:36.358Z,1.38
2022-08-22T15:09:08.439Z,1.95
2022-08-22T15:11:42.232Z,1.83
2022-08-22T15:14:23.408Z,1.75
2022-08-22T15:16:55.456Z,2.15
2022-08-22T15:19:28.045Z,1.70
2022-08-22T15:22:13.676Z,1.88
2022-08-22T15:24:45.253Z,2.28
2022-08-22T15:27:19.238Z,2.75
2022-08-22T15:29:53.367Z,2.50
2022-08-22T15:32:26.589Z,2.50
2022-08-22T15:35:05.526Z,2.53
2022-08-22T15:37:56.210Z,2.80
2022-08-22T15:40:35.678Z,2.13
2022-08-22T15:43:22.409Z,1.88
2022-08-22T15:46:07.503Z,2.30
2022-08-22T15:48:39.553Z,2.20
2022-08-22T15:51:11.610Z,1.95
2022-08-22T15:54:01.834Z,1.85
2022-08-22T15:56:34.939Z,1.40
2022-08-22T15:59:48.358Z,1.80
2022-08-22T16:02:35.702Z,1.55
2022-08-22T16:05:23.739Z,1.80
2022-08-22T16:08:03.599Z,1.70
2022-08-22T16:10:35.897Z,1.48
2022-08-22T16:13:35.253Z,1.92
2022-08-22T16:16:10.444Z,1.42
2022-08-22T16:19:12.818Z,1.60
2022-08-22T16:22:09.685Z,2.28
2022-08-22T16:25:10.378Z,1.80
2022-08-22T16:27:52.337Z,1.80
2022-08-22T16:30:33.511Z,1.60
2022-08-22T16:33:01.438Z,2.25
2022-08-22T16:36:06.906Z,1.60
2022-08-22T16:38:43.314Z,1.60
2022-08-22T16:41:26.594Z,1.48
2022-08-22T16:44:14.897Z,1.70
2022-08-22T16:46:47.473Z,1.90
2022-08-22T16:49:28.304Z,2.03
2022-08-22T16:52:35.788Z,2.20
2022-08-22T16:55:08.641Z,1.90
2022-08-22T16:58:05.123Z,1.75
2022-08-22T17:00:48.763Z,1.90
2022-08-22T17:03:27.866Z,1.87
2022-08-22T17:06:05.352Z,1.60
2022-08-22T17:08:50.284Z,1.80
2022-08-22T17:11:31.991Z,2.00
2022-08-22T17:14:28.393Z,2.40
2022-08-22T17:17:11.991Z,1.80
2022-08-22T17:19:52.297Z,1.77
2022-08-22T17:22:30.087Z,2.00
2022-08-22T17:25:11.077Z,1.67
2022-08-22T17:27:43.825Z,1.87
2022-08-22T17:30:15.721Z,1.70
2022-08-22T17:32:59.882Z,1.40
2022-08-22T17:35:40.350Z,1.80
2022-08-22T17:38:17.819Z,1.63
2022-08-22T17:40:58.246Z,1.70
2022-08-22T17:43:48.708Z,1.60
2022-08-22T17:46:34.223Z,1.70
2022-08-22T17:49:15.237Z,1.87
2022-08-22T17:51:50.418Z,2.00
2022-08-22T17:54:29.606Z,2.30
2022-08-22T17:57:05.932Z,2.00
2022-08-22T17:59:45.672Z,1.77
2022-08-22T18:02:18.984Z,1.63
2022-08-22T18:04:52.346Z,1.90
2022-08-22T18:07:33.777Z,1.73
2022-08-22T18:10:07.591Z,1.70
2022-08-22T18:12:41.743Z,1.70
2022-08-22T18:15:21.337Z,2.00
2022-08-22T18:17:55.349Z,1.43
2022-08-22T18:20:28.973Z,1.70
2022-08-22T18:23:02.839Z,1.73
2022-08-22T18:25:37.737Z,1.70
2022-08-22T18:28:10.294Z,1.77
2022-08-22T18:30:54.971Z,1.43
2022-08-22T18:33:31.605Z,1.63
2022-08-22T18:36:07.599Z,1.77
2022-08-22T18:38:40.455Z,1.60
2022-08-22T18:41:15.776Z,1.80
2022-08-22T18:43:48.344Z,1.60
2022-08-22T18:46:40.682Z,1.67
2022-08-22T18:49:16.039Z,1.80
2022-08-22T18:51:44.457Z,1.50
2022-08-22T18:54:41.933Z,1.67
2022-08-22T18:57:30.839Z,2.10
2022-08-22T19:00:09.648Z,1.63
2022-08-22T19:03:07.282Z,1.70
2022-08-22T19:06:13.699Z,1.90
2022-08-22T19:08:57.609Z,2.00
2022-08-22T19:11:40.469Z,1.87
2022-08-22T19:14:26.999Z,1.50
2022-08-22T19:17:34.398Z,1.47
2022-08-22T19:20:24.922Z,1.80
2022-08-22T19:23:33.174Z,1.87
2022-08-22T19:26:25.154Z,1.70
2022-08-22T19:28:54.143Z,1.37
2022-08-22T19:31:25.831Z,1.80
2022-08-22T19:34:16.739Z,1.67
2022-08-22T19:36:45.711Z,1.77
2022-08-22T19:39:51.236Z,1.70
2022-08-22T19:42:44.093Z,1.53
2022-08-22T19:45:25.659Z,1.47
2022-08-22T19:47:58.116Z,1.93
2022-08-22T19:50:33.105Z,1.60
2022-08-22T19:53:15.595Z,1.37
2022-08-22T19:55:56.218Z,1.70
2022-08-22T19:58:31.959Z,1.80
2022-08-22T20:01:06.230Z,1.70
2022-08-22T20:03:45.942Z,1.47
2022-08-22T20:06:43.152Z,1.60
2022-08-22T20:09:26.469Z,1.47
2022-08-22T20:12:05.230Z,1.73
2022-08-22T20:14:35.916Z,1.50
2022-08-22T20:17:14.669Z,1.53
2022-08-22T20:22:42.610Z,1.63
2022-08-22T20:25:42.592Z,1.50
2022-08-22T20:28:09.706Z,1.90
2022-08-22T20:30:41.482Z,1.53
2022-08-22T20:33:12.957Z,1.40
2022-08-22T20:35:44.226Z,1.57
2022-08-22T20:38:20.550Z,1.80
2022-08-22T20:40:56.307Z,2.00
2022-08-22T20:43:29.442Z,1.53
2022-08-22T20:46:07.959Z,1.47
2022-08-22T20:48:43.683Z,1.60
2022-08-22T20:51:17.905Z,1.73
2022-08-22T20:53:52.624Z,1.63
2022-08-22T20:56:33.414Z,1.60
2022-08-22T20:59:15.205Z,1.63
2022-08-22T21:01:44.468Z,1.80
2022-08-22T21:04:12.637Z,1.60
2022-08-22T21:06:40.499Z,1.83
2022-08-22T21:09:30.918Z,1.70
2022-08-22T21:11:59.838Z,1.80
2022-08-22T21:14:34.139Z,1.70
2022-08-22T21:17:17.818Z,1.63
2022-08-22T21:19:45.665Z,1.70
2022-08-22T21:22:14.898Z,1.50
2022-08-22T21:24:42.909Z,1.90
2022-08-22T21:27:15.410Z,1.90
2022-08-22T21:29:47.110Z,2.00
2022-08-22T21:32:25.667Z,1.60
2022-08-22T21:34:54.134Z,1.90
2022-08-22T21:37:27.973Z,2.03
2022-08-22T21:40:02.902Z,1.43
2022-08-22T21:42:35.818Z,1.53
2022-08-22T21:45:08.614Z,1.67
2022-08-22T21:47:40.376Z,1.50
2022-08-22T21:50:26.901Z,1.77
2022-08-22T21:53:04.842Z,1.43
2022-08-22T21:55:39.840Z,1.40
2022-08-22T21:58:12.568Z,1.57
2022-08-22T22:00:57.386Z,1.60
2022-08-22T22:03:28.009Z,1.60
2022-08-22T22:05:58.476Z,1.30
2022-08-22T22:08:31.497Z,1.40
2022-08-22T22:11:03.314Z,1.93
2022-08-22T22:13:34.901Z,1.47
2022-08-22T22:16:08.239Z,1.50
2022-08-22T22:18:38.427Z,1.37
2022-08-22T22:21:06.434Z,1.50
2022-08-22T22:23:34.339Z,1.33
2022-08-22T22:26:06.330Z,1.40
2022-08-22T22:28:37.511Z,1.30
2022-08-22T22:31:07.720Z,1.43
2022-08-22T22:33:38.716Z,1.57
2022-08-22T22:36:11.623Z,1.70
2022-08-22T22:38:41.411Z,1.60
2022-08-22T22:41:09.786Z,1.73
2022-08-22T22:43:37.674Z,1.53
2022-08-22T22:46:07.303Z,1.43
2022-08-22T22:48:35.353Z,1.50
2022-08-22T22:51:09.031Z,1.57
2022-08-22T22:53:40.347Z,1.77
2022-08-22T22:56:14.499Z,1.60
2022-08-22T22:58:44.131Z,2.10
2022-08-22T23:01:16.254Z,1.77
2022-08-22T23:03:45.134Z,1.80
2022-08-22T23:06:15.149Z,1.60
2022-08-22T23:08:42.923Z,1.57
2022-08-22T23:11:12.799Z,1.80
2022-08-22T23:13:41.736Z,1.97
2022-08-22T23:16:16.077Z,1.63
2022-08-22T23:18:44.933Z,1.70
2022-08-22T23:21:14.854Z,1.63
2022-08-22T23:23:43.280Z,1.70
2022-08-22T23:26:11.909Z,1.87
2022-08-22T23:28:40.666Z,1.63
2022-08-22T23:31:20.953Z,1.53
2022-08-22T23:33:48.673Z,2.00
2022-08-22T23:36:20.583Z,2.07
2022-08-22T23:38:50.007Z,1.90
2022-08-22T23:41:19.120Z,1.83
2022-08-22T23:43:50.820Z,1.87
2022-08-22T23:46:24.073Z,1.80
2022-08-22T23:48:52.475Z,2.00
2022-08-22T23:51:23.216Z,1.73
2022-08-22T23:53:51.711Z,1.87
2022-08-22T23:56:22.572Z,1.80
2022-08-22T23:58:53.330Z,1.63
